Time;durP1;ratioP1;P1;durP2;ratioP2;P2;SDS_P1;SDS_P2;PMS_P1;PMS_P2;Temp;Humidity;BMP_temperature;BMP_pressure;BME280_temperature;BME280_humidity;BME280_pressure;Samples;Min_cycle;Max_cycle;Signal;HPM_P1;HPM_P2
2022/04/07 00:00:19;;;;;;;;;;;8.60;99.90;;;;;;4996087;28;20401;-88
2022/04/07 00:02:46;;;;;;;;;;;8.50;99.90;;;;;;4996496;28;19933;-87
2022/04/07 00:05:13;;;;;;;;;;;8.50;99.90;;;;;;4995063;28;19961;-87
2022/04/07 00:07:40;;;;;;;;;;;8.50;99.90;;;;;;4996300;28;19952;-87
2022/04/07 00:10:07;;;;;;;;;;;8.50;99.90;;;;;;4996678;28;19964;-87
2022/04/07 00:12:34;;;;;;;;;;;8.70;99.90;;;;;;4996247;28;19929;-87
2022/04/07 00:15:03;;;;;;;;;;;8.50;99.90;;;;;;4989250;28;19973;-87
2022/04/07 00:17:29;;;;;;;;;;;8.50;99.90;;;;;;4977321;28;19927;-87
2022/04/07 00:19:56;;;;;;;;;;;7.90;99.90;;;;;;4977002;28;19980;-87
2022/04/07 00:22:23;;;;;;;;;;;8.50;99.90;;;;;;4977003;28;19926;-88
2022/04/07 00:24:50;;;;;;;;;;;8.40;99.90;;;;;;4981928;28;19925;-88
2022/04/07 00:27:17;;;;;;;;;;;7.80;99.90;;;;;;4996028;28;19925;-87
2022/04/07 00:29:43;;;;;;;;;;;8.60;99.90;;;;;;4996147;28;20423;-87
2022/04/07 00:32:12;;;;;;;;;;;8.60;99.90;;;;;;4995804;28;20042;-87
2022/04/07 00:34:39;;;;;;;;;;;7.90;99.90;;;;;;4992352;28;19926;-87
2022/04/07 00:37:05;;;;;;;;;;;8.50;99.90;;;;;;4976333;28;19938;-87
2022/04/07 00:39:32;;;;;;;;;;;8.50;99.90;;;;;;4976135;28;20352;-87
2022/04/07 00:41:59;;;;;;;;;;;8.70;99.90;;;;;;4993996;28;19930;-87
2022/04/07 00:44:27;;;;;;;;;;;8.40;99.90;;;;;;4995784;28;20007;-87
2022/04/07 00:46:54;;;;;;;;;;;8.40;99.90;;;;;;4995943;28;19932;-87
2022/04/07 00:49:22;;;;;;;;;;;8.40;99.90;;;;;;4995518;28;19925;-87
2022/04/07 00:51:50;;;;;;;;;;;8.40;99.90;;;;;;4979202;28;19926;-87
2022/04/07 00:54:17;;;;;;;;;;;8.40;99.90;;;;;;4975952;28;20010;-86
2022/04/07 00:56:44;;;;;;;;;;;9.00;99.90;;;;;;4976120;28;20373;-87
2022/04/07 00:59:15;;;;;;;;;;;8.30;99.90;;;;;;4976141;28;20385;-87
2022/04/07 01:01:42;;;;;;;;;;;8.30;99.90;;;;;;4976120;28;20270;-87
2022/04/07 01:04:09;;;;;;;;;;;8.20;99.90;;;;;;4976275;28;19926;-87
2022/04/07 01:06:38;;;;;;;;;;;8.30;99.90;;;;;;4976136;28;19950;-87
2022/04/07 01:09:05;;;;;;;;;;;8.30;99.90;;;;;;4976165;28;19930;-87
2022/04/07 01:11:32;;;;;;;;;;;10.00;99.90;;;;;;4988300;28;19936;-87
2022/04/07 01:13:59;;;;;;;;;;;8.20;99.90;;;;;;4995214;28;19933;-87
2022/04/07 01:16:27;;;;;;;;;;;8.30;99.90;;;;;;4995644;28;20352;-87
2022/04/07 01:18:55;;;;;;;;;;;9.00;99.90;;;;;;4995300;28;19926;-87
2022/04/07 01:21:22;;;;;;;;;;;8.30;99.90;;;;;;4983983;28;19934;-87
2022/04/07 01:23:55;;;;;;;;;;;8.30;99.90;;;;;;4976049;28;19969;-87
2022/04/07 01:26:24;;;;;;;;;;;8.90;99.90;;;;;;4975571;28;20447;-87
2022/04/07 01:28:51;;;;;;;;;;;8.30;99.90;;;;;;4975701;28;19972;-86
2022/04/07 01:31:18;;;;;;;;;;;8.40;99.90;;;;;;4985984;28;19932;-86
2022/04/07 01:33:45;;;;;;;;;;;8.30;99.90;;;;;;4994816;28;20439;-86
2022/04/07 01:36:17;;;;;;;;;;;8.30;99.90;;;;;;4977537;28;19972;-87
2022/04/07 01:38:45;;;;;;;;;;;8.30;99.90;;;;;;4994809;28;20406;-87
2022/04/07 01:41:12;;;;;;;;;;;8.20;99.90;;;;;;4985192;28;19980;-87
2022/04/07 01:43:41;;;;;;;;;;;8.30;99.90;;;;;;4975561;28;19949;-87
2022/04/07 01:46:12;;;;;;;;;;;8.30;99.90;;;;;;4975652;28;19926;-87
2022/04/07 01:48:39;;;;;;;;;;;8.20;99.90;;;;;;4975809;28;20025;-86
2022/04/07 01:51:06;;;;;;;;;;;8.80;99.90;;;;;;4983970;28;19973;-86
2022/04/07 01:53:35;;;;;;;;;;;8.20;99.90;;;;;;4975348;28;19926;-87
2022/04/07 01:56:02;;;;;;;;;;;8.20;99.90;;;;;;4985461;28;19929;-86
2022/04/07 01:58:29;;;;;;;;;;;8.10;99.90;;;;;;4994517;28;19926;-87
2022/04/07 02:00:57;;;;;;;;;;;7.90;99.90;;;;;;4978809;28;19926;-86
2022/04/07 02:03:26;;;;;;;;;;;8.10;99.90;;;;;;4975305;28;19985;-86
2022/04/07 02:05:53;;;;;;;;;;;8.10;99.90;;;;;;4975138;28;19941;-87
2022/04/07 02:08:19;;;;;;;;;;;8.10;99.90;;;;;;4974961;28;20016;-86
2022/04/07 02:10:46;;;;;;;;;;;8.10;99.90;;;;;;4974881;28;19926;-86
2022/04/07 02:13:13;;;;;;;;;;;8.00;99.90;;;;;;4974732;28;19926;-86
2022/04/07 02:15:40;;;;;;;;;;;8.00;99.90;;;;;;4957555;28;19926;-87
2022/04/07 02:18:08;;;;;;;;;;;8.00;99.90;;;;;;4991767;28;19929;-86
2022/04/07 02:20:36;;;;;;;;;;;8.10;99.90;;;;;;4980370;28;19965;-86
2022/04/07 02:23:02;;;;;;;;;;;8.10;99.90;;;;;;4974607;28;19926;-86
2022/04/07 02:25:29;;;;;;;;;;;8.00;99.90;;;;;;4974475;28;19926;-86
2022/04/07 02:27:56;;;;;;;;;;;8.00;99.90;;;;;;4975013;28;19945;-87
2022/04/07 02:30:23;;;;;;;;;;;7.20;99.90;;;;;;4974905;28;19926;-87
2022/04/07 02:32:50;;;;;;;;;;;8.00;99.90;;;;;;4989250;28;19925;-87
2022/04/07 02:35:18;;;;;;;;;;;8.00;99.90;;;;;;4974744;28;20336;-87
2022/04/07 02:37:45;;;;;;;;;;;8.70;99.90;;;;;;4974317;28;19926;-86
2022/04/07 02:40:13;;;;;;;;;;;8.80;99.90;;;;;;4974873;28;19953;-86
2022/04/07 02:42:40;;;;;;;;;;;8.00;99.90;;;;;;4974908;28;20017;-87
2022/04/07 02:45:08;;;;;;;;;;;8.10;99.90;;;;;;4974862;28;19926;-87
2022/04/07 02:47:39;;;;;;;;;;;8.10;99.90;;;;;;4974872;28;19977;-87
2022/04/07 02:50:06;;;;;;;;;;;8.00;99.90;;;;;;4974736;28;20013;-86
2022/04/07 02:52:34;;;;;;;;;;;7.50;99.90;;;;;;4983855;28;20444;-86
2022/04/07 02:55:02;;;;;;;;;;;8.00;99.90;;;;;;4992535;28;20444;-87
2022/04/07 02:57:30;;;;;;;;;;;7.90;99.90;;;;;;4993781;28;19937;-87
2022/04/07 02:59:57;;;;;;;;;;;7.80;99.90;;;;;;4984074;28;20411;-86
2022/04/07 03:02:24;;;;;;;;;;;7.90;99.90;;;;;;4979958;28;19956;-86
2022/04/07 03:04:51;;;;;;;;;;;7.90;99.90;;;;;;4994078;28;19929;-87
2022/04/07 03:07:19;;;;;;;;;;;8.50;99.90;;;;;;4993536;28;20016;-87
2022/04/07 03:09:49;;;;;;;;;;;7.80;99.90;;;;;;4993717;28;19942;-87
2022/04/07 03:12:18;;;;;;;;;;;7.80;99.90;;;;;;4991803;28;19929;-87
2022/04/07 03:14:45;;;;;;;;;;;8.00;99.90;;;;;;4978452;28;19949;-87
2022/04/07 03:17:12;;;;;;;;;;;8.20;99.90;;;;;;4978336;28;19981;-87
2022/04/07 03:19:39;;;;;;;;;;;7.80;99.90;;;;;;4979968;28;19930;-86
2022/04/07 03:22:06;;;;;;;;;;;7.30;99.90;;;;;;4980289;28;19926;-87
2022/04/07 03:24:32;;;;;;;;;;;7.50;99.90;;;;;;4997831;28;19927;-87
2022/04/07 03:27:04;;;;;;;;;;;7.60;99.90;;;;;;4998236;28;19930;-87
2022/04/07 03:29:31;;;;;;;;;;;7.40;99.90;;;;;;4997908;28;20085;-86
2022/04/07 03:32:00;;;;;;;;;;;7.50;99.90;;;;;;4992901;28;19937;-87
2022/04/07 03:34:27;;;;;;;;;;;7.50;99.90;;;;;;4980246;28;19926;-86
2022/04/07 03:36:54;;;;;;;;;;;6.40;99.90;;;;;;4977503;28;19933;-86
2022/04/07 03:39:21;;;;;;;;;;;7.30;99.90;;;;;;4977599;28;19950;-87
2022/04/07 03:41:47;;;;;;;;;;;7.20;99.90;;;;;;4987895;28;20365;-87
2022/04/07 03:44:16;;;;;;;;;;;6.20;99.90;;;;;;4996876;28;19960;-86
2022/04/07 03:46:45;;;;;;;;;;;7.20;99.90;;;;;;4996899;28;20447;-87
2022/04/07 03:49:12;;;;;;;;;;;7.20;99.90;;;;;;4985000;28;19930;-86
2022/04/07 03:51:38;;;;;;;;;;;7.60;99.90;;;;;;4977301;28;19930;-86
2022/04/07 03:54:05;;;;;;;;;;;7.20;99.90;;;;;;4977218;28;19926;-86
2022/04/07 03:56:32;;;;;;;;;;;7.30;99.90;;;;;;4977359;28;20020;-86
2022/04/07 03:58:59;;;;;;;;;;;7.30;99.90;;;;;;4984807;28;20327;-87
2022/04/07 04:01:27;;;;;;;;;;;7.40;99.90;;;;;;4985073;28;19934;-87
2022/04/07 04:03:54;;;;;;;;;;;7.30;99.90;;;;;;4977395;28;20032;-87
2022/04/07 04:06:21;;;;;;;;;;;7.20;99.90;;;;;;4977489;28;19926;-86
2022/04/07 04:08:48;;;;;;;;;;;7.10;99.90;;;;;;4985019;28;19929;-86
2022/04/07 04:11:14;;;;;;;;;;;6.90;99.90;;;;;;4982259;28;20337;-86
2022/04/07 04:13:45;;;;;;;;;;;6.90;99.90;;;;;;4977000;28;19981;-87
2022/04/07 04:16:14;;;;;;;;;;;6.80;99.90;;;;;;4976870;28;19930;-86
2022/04/07 04:18:43;;;;;;;;;;;6.80;99.90;;;;;;4981190;28;19953;-86
2022/04/07 04:21:10;;;;;;;;;;;4.00;99.90;;;;;;4996129;28;20011;-86
2022/04/07 04:23:38;;;;;;;;;;;7.10;99.90;;;;;;4995868;28;19932;-85
2022/04/07 04:26:05;;;;;;;;;;;6.80;99.90;;;;;;4995878;28;20021;-87
2022/04/07 04:28:32;;;;;;;;;;;6.60;99.90;;;;;;4993646;28;20420;-86
2022/04/07 04:30:58;;;;;;;;;;;6.80;99.90;;;;;;4976219;28;20411;-86
2022/04/07 04:33:25;;;;;;;;;;;7.10;99.90;;;;;;4976192;28;19972;-87
2022/04/07 04:35:53;;;;;;;;;;;7.00;99.90;;;;;;4975990;28;19934;-86
2022/04/07 04:38:20;;;;;;;;;;;7.20;99.90;;;;;;4976244;28;19926;-87
2022/04/07 04:40:47;;;;;;;;;;;6.80;99.90;;;;;;4995656;28;20350;-87
2022/04/07 04:43:13;;;;;;;;;;;7.00;99.90;;;;;;4995243;28;19964;-86
2022/04/07 04:45:42;;;;;;;;;;;7.00;99.90;;;;;;4996621;28;19938;-86
2022/04/07 04:48:08;;;;;;;;;;;7.00;99.90;;;;;;4981771;28;19930;-86
2022/04/07 04:50:36;;;;;;;;;;;6.60;99.90;;;;;;4976404;28;19926;-87
2022/04/07 04:53:04;;;;;;;;;;;6.90;99.90;;;;;;4976090;28;19926;-87
2022/04/07 04:55:31;;;;;;;;;;;6.80;99.90;;;;;;4976370;28;19981;-87
2022/04/07 04:57:58;;;;;;;;;;;6.60;99.90;;;;;;4976622;28;19926;-86
2022/04/07 05:00:25;;;;;;;;;;;6.80;99.90;;;;;;4991000;28;20269;-86
2022/04/07 05:02:52;;;;;;;;;;;6.80;99.90;;;;;;4995465;28;20381;-87
2022/04/07 05:05:19;;;;;;;;;;;6.90;99.90;;;;;;4994954;28;19929;-87
2022/04/07 05:07:45;;;;;;;;;;;7.50;99.90;;;;;;4995340;28;19972;-87
2022/04/07 05:10:14;;;;;;;;;;;6.80;99.90;;;;;;4993487;28;20396;-87
2022/04/07 05:12:40;;;;;;;;;;;6.90;99.90;;;;;;4995326;28;19996;-87
2022/04/07 05:15:07;;;;;;;;;;;6.90;99.90;;;;;;4986246;28;20432;-87
2022/04/07 05:17:34;;;;;;;;;;;6.90;99.90;;;;;;4975559;28;19981;-87
2022/04/07 05:20:01;;;;;;;;;;;7.70;99.90;;;;;;4993113;28;19926;-87
2022/04/07 05:22:28;;;;;;;;;;;7.10;99.90;;;;;;4995333;28;19973;-87
2022/04/07 05:24:55;;;;;;;;;;;7.10;99.90;;;;;;4990541;28;19930;-86
2022/04/07 05:27:27;;;;;;;;;;;6.10;99.90;;;;;;4977904;28;19961;-87
2022/04/07 05:29:54;;;;;;;;;;;7.20;99.90;;;;;;4976091;28;19926;-86
2022/04/07 05:32:21;;;;;;;;;;;7.20;99.90;;;;;;4982676;28;19933;-86
2022/04/07 05:34:47;;;;;;;;;;;7.50;99.90;;;;;;4981948;28;20344;-86
2022/04/07 05:37:14;;;;;;;;;;;7.30;99.90;;;;;;4995112;28;19926;-87
2022/04/07 05:39:41;;;;;;;;;;;7.20;99.90;;;;;;4993163;28;20351;-87
2022/04/07 05:42:08;;;;;;;;;;;7.10;99.90;;;;;;4994480;28;19925;-88
2022/04/07 05:44:36;;;;;;;;;;;7.20;99.90;;;;;;4993395;28;19925;-88
2022/04/07 05:47:17;;;;;;;;;;;7.40;99.90;;;;;;4994147;28;20332;-86
2022/04/07 05:49:44;;;;;;;;;;;7.20;99.90;;;;;;4994235;28;19957;-87
2022/04/07 05:52:11;;;;;;;;;;;7.30;99.90;;;;;;4982080;28;20389;-87
2022/04/07 05:54:37;;;;;;;;;;;6.20;99.90;;;;;;4975030;28;19949;-87
2022/04/07 05:57:04;;;;;;;;;;;7.20;99.90;;;;;;4974708;28;20328;-87
2022/04/07 05:59:31;;;;;;;;;;;7.20;99.90;;;;;;4974447;28;19953;-86
2022/04/07 06:02:00;;;;;;;;;;;7.30;99.90;;;;;;4981287;28;20324;-87
2022/04/07 06:04:27;;;;;;;;;;;7.30;99.90;;;;;;4994290;28;19930;-87
2022/04/07 06:06:53;;;;;;;;;;;7.20;99.90;;;;;;4994172;28;19925;-85
2022/04/07 06:09:20;;;;;;;;;;;5.70;99.90;;;;;;4994016;28;19969;-86
2022/04/07 06:11:47;;;;;;;;;;;6.90;99.90;;;;;;4986519;28;20009;-85
2022/04/07 06:14:14;;;;;;;;;;;6.60;99.90;;;;;;4974330;28;20361;-86
2022/04/07 06:16:40;;;;;;;;;;;6.00;99.90;;;;;;4974735;28;19980;-86
2022/04/07 06:19:08;;;;;;;;;;;6.40;99.90;;;;;;4974553;28;19958;-85
2022/04/07 06:21:35;;;;;;;;;;;6.40;99.90;;;;;;4978249;28;20006;-86
2022/04/07 06:24:02;;;;;;;;;;;6.40;99.90;;;;;;4993492;28;19937;-86
2022/04/07 06:26:29;;;;;;;;;;;6.40;99.90;;;;;;4990733;28;19981;-86
2022/04/07 06:28:56;;;;;;;;;;;6.50;99.90;;;;;;4974149;28;19969;-86
2022/04/07 06:31:22;;;;;;;;;;;6.70;99.90;;;;;;4974433;28;19980;-86
2022/04/07 06:33:49;;;;;;;;;;;7.00;99.90;;;;;;4993665;28;19926;-86
2022/04/07 06:36:17;;;;;;;;;;;6.60;99.90;;;;;;4993619;28;20003;-86
2022/04/07 06:38:44;;;;;;;;;;;6.60;99.90;;;;;;4991615;28;19926;-86
2022/04/07 06:41:11;;;;;;;;;;;6.70;99.90;;;;;;4993495;28;19926;-85
2022/04/07 06:43:38;;;;;;;;;;;6.70;99.90;;;;;;4975869;28;19993;-85
2022/04/07 06:46:05;;;;;;;;;;;6.80;99.90;;;;;;4974617;28;19926;-85
2022/04/07 06:48:32;;;;;;;;;;;6.90;99.90;;;;;;4991475;28;19988;-86
2022/04/07 06:50:58;;;;;;;;;;;7.00;99.90;;;;;;4996303;28;19980;-87
2022/04/07 06:53:27;;;;;;;;;;;7.10;99.90;;;;;;4979102;28;19969;-87
2022/04/07 06:55:54;;;;;;;;;;;7.30;99.90;;;;;;4978471;28;19927;-87
2022/04/07 06:58:21;;;;;;;;;;;7.40;99.90;;;;;;4990506;28;19936;-87
2022/04/07 07:00:48;;;;;;;;;;;7.30;99.90;;;;;;4985730;28;19926;-86
2022/04/07 07:03:15;;;;;;;;;;;7.40;99.90;;;;;;4990245;28;19930;-86
2022/04/07 07:05:42;;;;;;;;;;;7.40;99.90;;;;;;4997131;28;19925;-87
2022/04/07 07:08:13;;;;;;;;;;;7.50;99.90;;;;;;4981231;28;20025;-88
2022/04/07 07:10:42;;;;;;;;;;;7.40;99.90;;;;;;4979776;28;20003;-87
2022/04/07 07:13:09;;;;;;;;;;;7.50;99.90;;;;;;4980061;28;19988;-88
2022/04/07 07:15:39;;;;;;;;;;;7.60;99.90;;;;;;4978417;28;19934;-88
2022/04/07 07:18:07;;;;;;;;;;;7.60;99.90;;;;;;4993160;28;20285;-88
2022/04/07 07:20:34;;;;;;;;;;;7.80;99.90;;;;;;4997437;28;19930;-86
2022/04/07 07:23:00;;;;;;;;;;;8.20;99.90;;;;;;4981595;28;20390;-88
2022/04/07 07:25:30;;;;;;;;;;;7.80;99.90;;;;;;4978470;28;19967;-87
2022/04/07 07:28:00;;;;;;;;;;;8.40;99.90;;;;;;4994944;28;19942;-87
2022/04/07 07:30:29;;;;;;;;;;;8.40;99.90;;;;;;4998522;28;19930;-87
2022/04/07 07:32:55;;;;;;;;;;;7.90;99.90;;;;;;4999003;28;19933;-87
2022/04/07 07:35:23;;;;;;;;;;;7.70;99.90;;;;;;4999681;28;20445;-87
2022/04/07 07:37:50;;;;;;;;;;;7.50;99.90;;;;;;4985677;28;19930;-89
2022/04/07 07:40:18;;;;;;;;;;;6.60;99.90;;;;;;4981005;28;19926;-85
2022/04/07 07:42:47;;;;;;;;;;;7.30;99.90;;;;;;4979121;28;20002;-88
2022/04/07 07:45:26;;;;;;;;;;;7.00;99.90;;;;;;4978336;28;19937;-86
2022/04/07 07:47:54;;;;;;;;;;;7.50;99.90;;;;;;4979613;28;19930;-88
2022/04/07 07:50:45;;;;;;;;;;;8.30;99.90;;;;;;4982691;28;19930;-88
2022/04/07 07:53:14;;;;;;;;;;;7.90;99.90;;;;;;4974502;28;19934;-89
2022/04/07 07:55:44;;;;;;;;;;;8.30;99.90;;;;;;4974721;28;19929;-89
2022/04/07 07:58:11;;;;;;;;;;;8.50;99.90;;;;;;4967741;28;19922;-88
2022/04/07 08:00:39;;;;;;;;;;;8.60;99.90;;;;;;4922504;28;19934;-84
2022/04/07 08:03:06;;;;;;;;;;;8.00;99.90;;;;;;4916184;28;19934;-84
2022/04/07 08:05:33;;;;;;;;;;;8.00;99.90;;;;;;4927929;28;19934;-86
2022/04/07 08:08:00;;;;;;;;;;;8.00;99.90;;;;;;4930179;28;20168;-89
2022/04/07 08:10:32;;;;;;;;;;;10.80;99.90;;;;;;4921873;28;20423;-87
2022/04/07 08:13:04;;;;;;;;;;;8.60;99.90;;;;;;4927032;28;19934;-88
2022/04/07 08:15:34;;;;;;;;;;;10.60;99.90;;;;;;4955758;28;20364;-88
2022/04/07 08:18:03;;;;;;;;;;;8.00;99.90;;;;;;4956290;28;19934;-88
2022/04/07 08:20:30;;;;;;;;;;;8.10;99.90;;;;;;4986398;28;19941;-87
2022/04/07 08:23:01;;;;;;;;;;;8.00;99.90;;;;;;4982373;28;19925;-88
2022/04/07 08:25:28;;;;;;;;;;;8.00;99.90;;;;;;4978900;28;20351;-87
2022/04/07 08:27:55;;;;;;;;;;;8.00;99.90;;;;;;4985105;28;19925;-89
2022/04/07 08:30:27;;;;;;;;;;;7.70;99.90;;;;;;4984538;28;19926;-89
2022/04/07 08:32:56;;;;;;;;;;;6.70;99.90;;;;;;4988022;28;20902;-88
2022/04/07 08:35:30;;;;;;;;;;;6.90;99.90;;;;;;4981344;28;19926;-89
2022/04/07 08:37:57;;;;;;;;;;;8.00;99.90;;;;;;4984399;28;20284;-87
2022/04/07 08:40:24;;;;;;;;;;;8.10;99.90;;;;;;4989463;28;19926;-87
2022/04/07 08:42:51;;;;;;;;;;;8.20;99.90;;;;;;4977382;28;20024;-88
2022/04/07 08:45:18;;;;;;;;;;;8.80;99.90;;;;;;4973842;28;19926;-85
2022/04/07 08:47:47;;;;;;;;;;;8.30;99.90;;;;;;4983245;28;19980;-89
2022/04/07 08:50:14;;;;;;;;;;;9.70;99.90;;;;;;4986344;28;20386;-87
2022/04/07 08:52:42;;;;;;;;;;;8.40;99.90;;;;;;4983864;28;19934;-87
2022/04/07 08:55:09;;;;;;;;;;;8.70;99.90;;;;;;4987995;28;19930;-87
2022/04/07 08:57:38;;;;;;;;;;;8.70;99.90;;;;;;4986163;28;20020;-88
2022/04/07 09:00:06;;;;;;;;;;;9.40;99.90;;;;;;4989522;28;19937;-86
2022/04/07 09:02:33;;;;;;;;;;;8.90;99.90;;;;;;4982367;28;19926;-88
2022/04/07 09:05:00;;;;;;;;;;;8.90;99.90;;;;;;4982272;28;19969;-87
2022/04/07 09:07:36;;;;;;;;;;;8.90;99.90;;;;;;4982901;28;19933;-82
2022/04/07 09:10:05;;;;;;;;;;;8.50;99.90;;;;;;4977165;28;19959;-84
2022/04/07 09:12:33;;;;;;;;;;;8.10;99.90;;;;;;4979921;28;20348;-86
2022/04/07 09:15:01;;;;;;;;;;;7.90;99.90;;;;;;4981432;28;19926;-87
2022/04/07 09:17:28;;;;;;;;;;;8.10;99.90;;;;;;4988476;28;19926;-89
2022/04/07 09:19:55;;;;;;;;;;;7.70;99.90;;;;;;4985674;28;19934;-88
2022/04/07 09:22:30;;;;;;;;;;;8.10;99.90;;;;;;4988018;28;20344;-89
2022/04/07 09:24:59;;;;;;;;;;;7.10;99.90;;;;;;4981397;28;20640;-87
2022/04/07 09:27:29;;;;;;;;;;;7.50;99.90;;;;;;4941401;28;20115;-88
2022/04/07 09:30:00;;;;;;;;;;;7.40;99.90;;;;;;4983352;28;19973;-87
2022/04/07 09:32:27;;;;;;;;;;;7.40;99.90;;;;;;4967419;28;19934;-86
2022/04/07 09:34:56;;;;;;;;;;;6.80;99.90;;;;;;4954090;28;19926;-87
2022/04/07 09:37:24;;;;;;;;;;;7.20;99.90;;;;;;4983206;28;20421;-87
2022/04/07 09:39:51;;;;;;;;;;;7.90;99.90;;;;;;4979657;28;19973;-88
2022/04/07 09:42:18;;;;;;;;;;;7.00;99.90;;;;;;4981711;28;19996;-85
2022/04/07 09:44:50;;;;;;;;;;;6.90;99.90;;;;;;4980733;28;19997;-88
2022/04/07 09:47:19;;;;;;;;;;;7.10;99.90;;;;;;4987761;28;19945;-87
2022/04/07 09:49:46;;;;;;;;;;;7.10;99.90;;;;;;4979300;28;19933;-88
2022/04/07 09:52:13;;;;;;;;;;;7.70;99.90;;;;;;4990921;28;19997;-88
2022/04/07 09:54:41;;;;;;;;;;;7.20;99.90;;;;;;4979437;28;19926;-89
2022/04/07 09:57:09;;;;;;;;;;;7.40;99.90;;;;;;4987769;28;19937;-89
2022/04/07 09:59:39;;;;;;;;;;;8.20;99.90;;;;;;4983223;28;19993;-87
2022/04/07 10:02:08;;;;;;;;;;;6.90;99.90;;;;;;4979240;28;19953;-87
2022/04/07 10:04:35;;;;;;;;;;;7.50;99.90;;;;;;4981660;28;19937;-87
2022/04/07 10:07:04;;;;;;;;;;;7.30;99.90;;;;;;4982858;28;20052;-87
2022/04/07 10:09:31;;;;;;;;;;;7.60;99.90;;;;;;4961556;28;19938;-87
2022/04/07 10:11:59;;;;;;;;;;;7.70;99.90;;;;;;4979131;28;19929;-87
2022/04/07 10:14:28;;;;;;;;;;;8.60;99.90;;;;;;4971563;28;19966;-87
2022/04/07 10:16:55;;;;;;;;;;;9.40;99.90;;;;;;4988989;28;20023;-87
2022/04/07 10:19:26;;;;;;;;;;;8.40;99.90;;;;;;4973989;28;20004;-86
2022/04/07 10:22:02;;;;;;;;;;;8.60;99.90;;;;;;4976077;28;19930;-87
2022/04/07 10:24:31;;;;;;;;;;;8.10;99.90;;;;;;4982909;28;19993;-87
2022/04/07 10:27:00;;;;;;;;;;;7.90;99.90;;;;;;4985697;28;19930;-88
2022/04/07 10:29:28;;;;;;;;;;;8.40;99.90;;;;;;4982586;28;19933;-87
2022/04/07 10:32:14;;;;;;;;;;;8.60;99.90;;;;;;4979055;28;19969;-86
2022/04/07 10:34:54;;;;;;;;;;;8.60;99.90;;;;;;4983187;28;19993;-85
2022/04/07 10:37:29;;;;;;;;;;;8.90;99.90;;;;;;4982379;28;19930;-84
2022/04/07 10:39:55;;;;;;;;;;;9.70;99.90;;;;;;4979365;28;19933;-87
2022/04/07 10:42:56;;;;;;;;;;;9.20;99.90;;;;;;4980406;28;20367;-85
2022/04/07 10:45:31;;;;;;;;;;;7.10;99.90;;;;;;4988383;28;19933;-83
2022/04/07 10:48:12;;;;;;;;;;;9.00;99.90;;;;;;4981426;28;19992;-87
2022/04/07 10:50:55;;;;;;;;;;;8.80;99.90;;;;;;4978004;28;19965;-86
2022/04/07 10:53:24;;;;;;;;;;;8.70;99.90;;;;;;4980484;28;19945;-85
2022/04/07 10:55:54;;;;;;;;;;;8.90;99.90;;;;;;4979877;28;19925;-87
2022/04/07 10:58:36;;;;;;;;;;;9.00;99.90;;;;;;4981593;28;19942;-85
2022/04/07 11:01:04;;;;;;;;;;;9.40;99.90;;;;;;4974410;28;19973;-84
2022/04/07 11:03:32;;;;;;;;;;;10.00;99.90;;;;;;4986844;28;19972;-85
2022/04/07 11:06:01;;;;;;;;;;;9.50;99.90;;;;;;4983755;28;19984;-84
2022/04/07 11:08:30;;;;;;;;;;;9.60;99.90;;;;;;4987698;28;19926;-84
2022/04/07 11:10:57;;;;;;;;;;;9.80;99.90;;;;;;4983324;28;19925;-84
2022/04/07 11:13:38;;;;;;;;;;;9.60;99.90;;;;;;4978047;28;19984;-84
2022/04/07 11:16:12;;;;;;;;;;;8.90;99.90;;;;;;4981973;28;20024;-85
2022/04/07 11:18:47;;;;;;;;;;;8.70;99.90;;;;;;4985763;28;20262;-86
2022/04/07 11:21:15;;;;;;;;;;;8.60;99.90;;;;;;4986031;28;19925;-85
2022/04/07 11:23:43;;;;;;;;;;;8.90;99.90;;;;;;4983396;28;20498;-86
2022/04/07 11:26:11;;;;;;;;;;;8.80;99.90;;;;;;4984061;28;19934;-84
2022/04/07 11:28:38;;;;;;;;;;;10.00;99.90;;;;;;4979597;28;20004;-84
2022/04/07 11:31:06;;;;;;;;;;;9.10;99.90;;;;;;4980040;28;19932;-84
2022/04/07 11:33:37;;;;;;;;;;;9.10;99.90;;;;;;4982628;28;19930;-85
2022/04/07 11:36:23;;;;;;;;;;;9.20;99.90;;;;;;4985757;28;19926;-85
2022/04/07 11:38:54;;;;;;;;;;;8.50;99.90;;;;;;4978322;28;19951;-85
2022/04/07 11:41:21;;;;;;;;;;;9.00;99.90;;;;;;4969426;28;19934;-84
2022/04/07 11:43:49;;;;;;;;;;;9.60;99.90;;;;;;4978726;28;19982;-84
2022/04/07 11:46:16;;;;;;;;;;;8.30;99.90;;;;;;4983482;28;19929;-83
2022/04/07 11:48:43;;;;;;;;;;;8.10;99.90;;;;;;4990358;28;19926;-85
2022/04/07 11:51:11;;;;;;;;;;;7.60;99.90;;;;;;4985331;28;19977;-85
2022/04/07 11:53:39;;;;;;;;;;;9.20;99.90;;;;;;4978260;28;20346;-86
2022/04/07 11:56:16;;;;;;;;;;;7.70;99.90;;;;;;4987209;28;20024;-87
2022/04/07 11:58:43;;;;;;;;;;;8.50;99.90;;;;;;4985085;28;20025;-84
2022/04/07 12:01:11;;;;;;;;;;;8.30;99.90;;;;;;4978554;28;19933;-85
2022/04/07 12:03:41;;;;;;;;;;;8.50;99.90;;;;;;4976424;28;19926;-86
2022/04/07 12:06:09;;;;;;;;;;;8.60;99.90;;;;;;4983017;28;19933;-85
2022/04/07 12:08:38;;;;;;;;;;;8.80;99.90;;;;;;4976831;28;19937;-85
2022/04/07 12:11:06;;;;;;;;;;;8.60;99.90;;;;;;4980974;28;20022;-86
2022/04/07 12:13:36;;;;;;;;;;;9.20;99.90;;;;;;4979826;28;19934;-85
2022/04/07 12:16:03;;;;;;;;;;;9.50;99.90;;;;;;4977489;28;19926;-85
2022/04/07 12:18:30;;;;;;;;;;;9.20;99.90;;;;;;4980322;28;20016;-85
2022/04/07 12:21:01;;;;;;;;;;;9.30;99.90;;;;;;4991079;28;19926;-85
2022/04/07 12:23:28;;;;;;;;;;;9.20;99.90;;;;;;4976006;28;19989;-89
2022/04/07 12:25:59;;;;;;;;;;;9.20;99.90;;;;;;4992831;28;20388;-85
2022/04/07 12:28:32;;;;;;;;;;;9.40;99.90;;;;;;4981001;28;19926;-86
2022/04/07 12:31:00;;;;;;;;;;;9.30;99.90;;;;;;4995043;28;19925;-86
2022/04/07 12:33:37;;;;;;;;;;;9.00;99.90;;;;;;4968754;28;20028;-86
2022/04/07 12:36:04;;;;;;;;;;;9.20;99.90;;;;;;4957272;28;19925;-85
2022/04/07 12:38:31;;;;;;;;;;;8.60;99.90;;;;;;4973957;28;19926;-85
2022/04/07 12:41:09;;;;;;;;;;;9.70;99.90;;;;;;4940394;28;20290;-86
2022/04/07 12:43:43;;;;;;;;;;;9.10;99.90;;;;;;4932423;28;19949;-87
2022/04/07 12:46:13;;;;;;;;;;;8.20;99.90;;;;;;4937281;28;20011;-87
2022/04/07 12:48:59;;;;;;;;;;;8.40;99.90;;;;;;4946799;28;20347;-87
2022/04/07 12:51:26;;;;;;;;;;;9.90;99.90;;;;;;4945048;28;19932;-87
2022/04/07 12:54:06;;;;;;;;;;;8.90;99.90;;;;;;4954748;28;20400;-88
2022/04/07 12:56:37;;;;;;;;;;;9.80;99.90;;;;;;4944412;28;19984;-87
2022/04/07 12:59:04;;;;;;;;;;;8.90;99.90;;;;;;4979840;28;19973;-84
2022/04/07 13:01:33;;;;;;;;;;;8.80;99.90;;;;;;4984263;28;19934;-86
2022/04/07 13:04:08;;;;;;;;;;;8.80;99.90;;;;;;4979663;28;22400;-87
2022/04/07 13:06:35;;;;;;;;;;;8.90;99.90;;;;;;4988437;28;19973;-88
2022/04/07 13:09:02;;;;;;;;;;;8.90;99.90;;;;;;4984836;28;19934;-86
2022/04/07 13:11:32;;;;;;;;;;;9.60;99.90;;;;;;4987135;28;19961;-87
2022/04/07 13:13:58;;;;;;;;;;;10.00;99.90;;;;;;4989646;28;19968;-86
2022/04/07 13:16:25;;;;;;;;;;;8.00;99.90;;;;;;4997468;28;19930;-88
2022/04/07 13:18:54;;;;;;;;;;;8.90;99.90;;;;;;4995578;28;19930;-86
2022/04/07 13:21:23;;;;;;;;;;;6.90;99.90;;;;;;4991137;28;19930;-88
2022/04/07 13:23:50;;;;;;;;;;;10.20;99.90;;;;;;4980082;28;20005;-87
2022/04/07 13:26:17;;;;;;;;;;;8.70;99.90;;;;;;4990608;28;20024;-87
2022/04/07 13:28:45;;;;;;;;;;;8.50;99.90;;;;;;4987927;28;19937;-87
2022/04/07 13:31:15;;;;;;;;;;;8.40;99.90;;;;;;4983880;28;19934;-89
2022/04/07 13:33:45;;;;;;;;;;;8.50;99.90;;;;;;4984949;28;19933;-88
2022/04/07 13:36:17;;;;;;;;;;;8.00;99.90;;;;;;4989586;28;19930;-86
2022/04/07 13:38:51;;;;;;;;;;;7.70;99.90;;;;;;4983493;28;19934;-89
2022/04/07 13:41:21;;;;;;;;;;;8.00;99.90;;;;;;4981627;28;20292;-86
2022/04/07 13:43:48;;;;;;;;;;;8.40;99.90;;;;;;4985131;28;19937;-88
2022/04/07 13:46:17;;;;;;;;;;;8.40;99.90;;;;;;4984950;28;19933;-87
2022/04/07 13:48:44;;;;;;;;;;;8.50;99.90;;;;;;4985888;28;19934;-87
2022/04/07 13:51:11;;;;;;;;;;;7.80;99.90;;;;;;4983917;28;19976;-88
2022/04/07 13:53:39;;;;;;;;;;;8.70;99.90;;;;;;4986850;28;19932;-88
2022/04/07 13:56:06;;;;;;;;;;;8.80;99.90;;;;;;4988146;28;19977;-88
2022/04/07 13:58:34;;;;;;;;;;;6.80;99.90;;;;;;4985827;28;19934;-88
2022/04/07 14:01:04;;;;;;;;;;;8.20;99.90;;;;;;4981222;28;19937;-88
2022/04/07 14:03:33;;;;;;;;;;;8.00;99.90;;;;;;4986527;28;19954;-89
2022/04/07 14:06:02;;;;;;;;;;;5.80;99.90;;;;;;4973765;28;19926;-87
2022/04/07 14:08:29;;;;;;;;;;;7.80;99.90;;;;;;4987852;28;19925;-88
2022/04/07 14:10:57;;;;;;;;;;;7.20;99.90;;;;;;4984170;28;19968;-88
2022/04/07 14:13:24;;;;;;;;;;;7.20;99.90;;;;;;4978708;28;19930;-90
2022/04/07 14:15:54;;;;;;;;;;;7.30;99.90;;;;;;4979273;28;19958;-88
2022/04/07 14:18:23;;;;;;;;;;;7.80;99.90;;;;;;4980401;28;19942;-89
2022/04/07 14:20:50;;;;;;;;;;;9.90;99.90;;;;;;4977309;28;19930;-88
2022/04/07 14:23:19;;;;;;;;;;;7.90;99.90;;;;;;4984644;28;19933;-88
2022/04/07 14:25:46;;;;;;;;;;;7.30;99.90;;;;;;4964435;28;19936;-87
2022/04/07 14:28:15;;;;;;;;;;;7.20;99.90;;;;;;4974025;28;20336;-88
2022/04/07 14:30:43;;;;;;;;;;;7.20;99.90;;;;;;4983577;28;19930;-89
2022/04/07 14:33:10;;;;;;;;;;;7.70;99.90;;;;;;4975195;28;19941;-87
2022/04/07 14:35:37;;;;;;;;;;;6.30;99.90;;;;;;4985838;28;19937;-88